sensor_id;sensor_type;location;lat;lon;timestamp;pressure;altitude;pressure_sealevel;temperature;humidity
54876;BME280;40764;48.472;8.166;2023-04-28T00:05:53;97993.19;;;10.96;100.00
54876;BME280;40764;48.472;8.166;2023-04-28T00:11:53;97990.91;;;11.03;100.00
54876;BME280;40764;48.472;8.166;2023-04-28T00:17:54;97984.69;;;10.97;100.00
54876;BME280;40764;48.472;8.166;2023-04-28T00:23:54;97979.66;;;11.04;100.00
54876;BME280;40764;48.472;8.166;2023-04-28T00:29:55;97974.66;;;10.93;100.00
54876;BME280;40764;48.472;8.166;2023-04-28T00:35:59;97965.84;;;10.96;100.00
54876;BME280;40764;48.472;8.166;2023-04-28T00:42:00;97970.50;;;10.95;100.00
54876;BME280;40764;48.472;8.166;2023-04-28T00:48:01;97967.59;;;11.05;100.00
54876;BME280;40764;48.472;8.166;2023-04-28T00:54:02;97961.81;;;10.93;100.00
54876;BME280;40764;48.472;8.166;2023-04-28T01:00:03;97961.41;;;11.00;100.00
54876;BME280;40764;48.472;8.166;2023-04-28T01:06:05;97961.50;;;10.95;100.00
54876;BME280;40764;48.472;8.166;2023-04-28T01:12:05;97953.22;;;11.00;100.00
54876;BME280;40764;48.472;8.166;2023-04-28T01:18:06;97952.38;;;11.13;100.00
54876;BME280;40764;48.472;8.166;2023-04-28T01:24:07;97954.31;;;11.12;100.00
54876;BME280;40764;48.472;8.166;2023-04-28T01:30:07;97934.97;;;11.09;100.00
54876;BME280;40764;48.472;8.166;2023-04-28T01:36:08;97950.56;;;10.95;100.00
54876;BME280;40764;48.472;8.166;2023-04-28T01:42:08;97949.66;;;10.99;100.00
54876;BME280;40764;48.472;8.166;2023-04-28T01:48:08;97967.91;;;11.04;100.00
54876;BME280;40764;48.472;8.166;2023-04-28T01:54:09;97960.00;;;11.02;100.00
54876;BME280;40764;48.472;8.166;2023-04-28T02:00:09;97957.84;;;11.13;100.00
54876;BME280;40764;48.472;8.166;2023-04-28T02:06:10;97973.97;;;11.14;100.00
54876;BME280;40764;48.472;8.166;2023-04-28T02:12:10;97983.38;;;11.22;100.00
54876;BME280;40764;48.472;8.166;2023-04-28T02:18:11;97988.97;;;11.17;100.00
54876;BME280;40764;48.472;8.166;2023-04-28T02:24:11;97985.31;;;11.08;100.00
54876;BME280;40764;48.472;8.166;2023-04-28T02:30:11;97980.53;;;10.86;100.00
54876;BME280;40764;48.472;8.166;2023-04-28T02:36:12;97991.06;;;10.93;100.00
54876;BME280;40764;48.472;8.166;2023-04-28T02:42:13;97989.38;;;11.10;100.00
54876;BME280;40764;48.472;8.166;2023-04-28T02:48:13;97976.72;;;11.01;100.00
54876;BME280;40764;48.472;8.166;2023-04-28T02:54:13;97971.13;;;11.06;100.00
54876;BME280;40764;48.472;8.166;2023-04-28T03:00:14;97963.53;;;11.30;100.00
54876;BME280;40764;48.472;8.166;2023-04-28T03:06:15;97957.44;;;11.20;100.00
54876;BME280;40764;48.472;8.166;2023-04-28T03:12:15;97959.97;;;11.16;100.00
54876;BME280;40764;48.472;8.166;2023-04-28T03:18:15;97946.81;;;11.18;100.00
54876;BME280;40764;48.472;8.166;2023-04-28T03:24:16;97951.06;;;11.10;100.00
54876;BME280;40764;48.472;8.166;2023-04-28T03:30:16;97933.03;;;11.09;100.00
54876;BME280;40764;48.472;8.166;2023-04-28T03:36:17;97916.72;;;11.18;100.00
54876;BME280;40764;48.472;8.166;2023-04-28T03:42:17;97924.81;;;11.37;100.00
54876;BME280;40764;48.472;8.166;2023-04-28T03:48:17;97915.78;;;11.36;100.00
54876;BME280;40764;48.472;8.166;2023-04-28T03:54:18;97912.44;;;11.39;100.00
54876;BME280;40764;48.472;8.166;2023-04-28T04:00:18;97905.69;;;11.59;100.00
54876;BME280;40764;48.472;8.166;2023-04-28T04:06:18;97902.78;;;11.42;100.00
54876;BME280;40764;48.472;8.166;2023-04-28T04:12:20;97897.63;;;11.40;100.00
54876;BME280;40764;48.472;8.166;2023-04-28T04:18:21;97908.38;;;11.37;100.00
54876;BME280;40764;48.472;8.166;2023-04-28T04:24:21;97903.41;;;11.25;100.00
54876;BME280;40764;48.472;8.166;2023-04-28T04:30:22;97901.75;;;11.52;100.00
54876;BME280;40764;48.472;8.166;2023-04-28T04:36:22;97879.44;;;11.58;100.00
54876;BME280;40764;48.472;8.166;2023-04-28T04:42:22;97902.72;;;11.69;100.00
54876;BME280;40764;48.472;8.166;2023-04-28T04:48:23;97884.69;;;11.55;100.00
54876;BME280;40764;48.472;8.166;2023-04-28T04:54:23;97886.78;;;11.71;100.00
54876;BME280;40764;48.472;8.166;2023-04-28T05:00:24;97888.59;;;11.76;100.00
54876;BME280;40764;48.472;8.166;2023-04-28T05:06:24;97891.22;;;11.81;100.00
54876;BME280;40764;48.472;8.166;2023-04-28T05:12:25;97893.56;;;11.88;100.00
54876;BME280;40764;48.472;8.166;2023-04-28T05:18:25;97902.69;;;11.83;100.00
54876;BME280;40764;48.472;8.166;2023-04-28T05:24:26;97901.88;;;11.83;100.00
54876;BME280;40764;48.472;8.166;2023-04-28T05:30:26;97901.06;;;11.82;100.00
54876;BME280;40764;48.472;8.166;2023-04-28T05:36:27;97901.16;;;11.77;100.00
54876;BME280;40764;48.472;8.166;2023-04-28T05:42:27;97893.44;;;11.93;100.00
54876;BME280;40764;48.472;8.166;2023-04-28T05:48:27;97887.69;;;12.03;100.00
54876;BME280;40764;48.472;8.166;2023-04-28T05:54:28;97885.88;;;11.98;100.00
54876;BME280;40764;48.472;8.166;2023-04-28T06:00:28;97881.59;;;12.06;100.00
54876;BME280;40764;48.472;8.166;2023-04-28T06:06:29;97879.94;;;12.27;100.00
54876;BME280;40764;48.472;8.166;2023-04-28T06:12:31;97886.34;;;12.45;100.00
54876;BME280;40764;48.472;8.166;2023-04-28T06:18:31;97882.16;;;12.48;100.00
54876;BME280;40764;48.472;8.166;2023-04-28T06:24:31;97877.03;;;12.55;100.00
54876;BME280;40764;48.472;8.166;2023-04-28T06:30:33;97876.41;;;12.66;100.00
54876;BME280;40764;48.472;8.166;2023-04-28T06:36:33;97879.16;;;12.66;100.00
54876;BME280;40764;48.472;8.166;2023-04-28T06:42:34;97875.34;;;12.76;100.00
54876;BME280;40764;48.472;8.166;2023-04-28T06:48:34;97861.19;;;12.91;100.00
54876;BME280;40764;48.472;8.166;2023-04-28T06:54:34;97863.13;;;12.91;100.00
54876;BME280;40764;48.472;8.166;2023-04-28T07:00:37;97872.53;;;13.07;100.00
54876;BME280;40764;48.472;8.166;2023-04-28T07:06:37;97877.88;;;13.12;100.00
54876;BME280;40764;48.472;8.166;2023-04-28T07:12:38;97889.06;;;13.24;100.00
54876;BME280;40764;48.472;8.166;2023-04-28T07:18:38;97880.97;;;13.19;100.00
54876;BME280;40764;48.472;8.166;2023-04-28T07:24:38;97886.16;;;13.29;100.00
54876;BME280;40764;48.472;8.166;2023-04-28T07:30:39;97897.28;;;13.24;100.00
54876;BME280;40764;48.472;8.166;2023-04-28T07:36:39;97896.63;;;13.27;100.00
54876;BME280;40764;48.472;8.166;2023-04-28T07:42:40;97896.84;;;13.31;100.00
54876;BME280;40764;48.472;8.166;2023-04-28T07:48:41;97908.34;;;13.59;100.00
54876;BME280;40764;48.472;8.166;2023-04-28T07:54:41;97910.13;;;13.89;100.00
54876;BME280;40764;48.472;8.166;2023-04-28T08:00:41;97922.69;;;14.16;100.00
54876;BME280;40764;48.472;8.166;2023-04-28T08:06:42;97933.19;;;14.32;100.00
54876;BME280;40764;48.472;8.166;2023-04-28T08:12:42;97934.97;;;14.53;100.00
54876;BME280;40764;48.472;8.166;2023-04-28T08:18:44;97938.81;;;14.61;100.00
54876;BME280;40764;48.472;8.166;2023-04-28T08:24:45;97952.22;;;14.71;100.00
54876;BME280;40764;48.472;8.166;2023-04-28T08:30:45;97960.03;;;14.35;100.00
54876;BME280;40764;48.472;8.166;2023-04-28T08:36:46;97956.47;;;14.34;100.00
54876;BME280;40764;48.472;8.166;2023-04-28T08:42:46;97962.66;;;14.22;100.00
54876;BME280;40764;48.472;8.166;2023-04-28T08:48:48;97972.16;;;14.42;100.00
54876;BME280;40764;48.472;8.166;2023-04-28T08:54:49;97965.19;;;14.62;100.00
54876;BME280;40764;48.472;8.166;2023-04-28T09:00:51;97977.44;;;14.82;100.00
54876;BME280;40764;48.472;8.166;2023-04-28T09:06:51;97979.88;;;14.83;100.00
54876;BME280;40764;48.472;8.166;2023-04-28T09:12:54;97994.91;;;14.86;100.00
54876;BME280;40764;48.472;8.166;2023-04-28T09:18:55;97995.06;;;14.90;100.00
54876;BME280;40764;48.472;8.166;2023-04-28T09:25:09;97993.78;;;15.25;100.00
54876;BME280;40764;48.472;8.166;2023-04-28T09:31:23;97988.97;;;15.52;100.00
54876;BME280;40764;48.472;8.166;2023-04-28T09:37:39;97992.09;;;16.00;100.00
54876;BME280;40764;48.472;8.166;2023-04-28T09:43:39;97985.22;;;16.48;100.00
54876;BME280;40764;48.472;8.166;2023-04-28T09:49:53;97992.38;;;16.61;100.00
54876;BME280;40764;48.472;8.166;2023-04-28T09:55:57;97989.84;;;16.89;100.00
54876;BME280;40764;48.472;8.166;2023-04-28T10:01:58;97994.19;;;17.48;100.00
54876;BME280;40764;48.472;8.166;2023-04-28T10:08:00;98002.19;;;17.04;100.00
54876;BME280;40764;48.472;8.166;2023-04-28T10:14:01;97990.91;;;16.97;100.00
54876;BME280;40764;48.472;8.166;2023-04-28T10:20:02;97990.72;;;17.14;100.00
54876;BME280;40764;48.472;8.166;2023-04-28T10:26:08;97994.47;;;16.97;100.00
54876;BME280;40764;48.472;8.166;2023-04-28T10:32:23;97992.31;;;17.27;100.00
54876;BME280;40764;48.472;8.166;2023-04-28T10:38:25;97990.47;;;17.19;99.79
54876;BME280;40764;48.472;8.166;2023-04-28T10:50:29;97993.69;;;17.09;98.73
54876;BME280;40764;48.472;8.166;2023-04-28T10:56:30;97994.19;;;17.36;95.95
54876;BME280;40764;48.472;8.166;2023-04-28T11:02:38;97988.03;;;17.06;98.20
54876;BME280;40764;48.472;8.166;2023-04-28T11:08:39;97983.47;;;17.34;95.90
54876;BME280;40764;48.472;8.166;2023-04-28T11:14:40;97975.53;;;17.57;94.32
54876;BME280;40764;48.472;8.166;2023-04-28T11:20:40;97964.00;;;18.32;90.93
54876;BME280;40764;48.472;8.166;2023-04-28T11:26:43;97966.25;;;19.13;86.59
54876;BME280;40764;48.472;8.166;2023-04-28T11:32:44;97961.50;;;19.14;83.78
54876;BME280;40764;48.472;8.166;2023-04-28T11:38:44;97960.59;;;18.94;84.25
54876;BME280;40764;48.472;8.166;2023-04-28T11:44:52;97953.88;;;18.23;89.23
54876;BME280;40764;48.472;8.166;2023-04-28T11:50:53;97964.13;;;17.46;90.07
54876;BME280;40764;48.472;8.166;2023-04-28T11:56:55;97950.56;;;17.41;95.73
54876;BME280;40764;48.472;8.166;2023-04-28T12:02:56;97954.91;;;17.54;94.13
54876;BME280;40764;48.472;8.166;2023-04-28T12:08:57;97954.47;;;17.77;94.29
54876;BME280;40764;48.472;8.166;2023-04-28T12:15:04;97945.31;;;18.01;96.46
54876;BME280;40764;48.472;8.166;2023-04-28T12:21:19;97954.09;;;17.54;96.33
54876;BME280;40764;48.472;8.166;2023-04-28T12:27:20;97943.53;;;17.68;94.98
54876;BME280;40764;48.472;8.166;2023-04-28T12:33:26;97938.78;;;17.32;100.00
54876;BME280;40764;48.472;8.166;2023-04-28T12:39:28;97943.66;;;17.11;97.68
54876;BME280;40764;48.472;8.166;2023-04-28T12:45:29;97942.25;;;17.17;100.00
54876;BME280;40764;48.472;8.166;2023-04-28T12:51:30;97935.91;;;17.04;100.00
54876;BME280;40764;48.472;8.166;2023-04-28T12:57:30;97945.69;;;17.01;100.00
54876;BME280;40764;48.472;8.166;2023-04-28T13:03:31;97940.19;;;17.14;100.00
54876;BME280;40764;48.472;8.166;2023-04-28T13:09:31;97931.66;;;17.31;100.00
54876;BME280;40764;48.472;8.166;2023-04-28T13:15:32;97939.16;;;17.06;99.80
54876;BME280;40764;48.472;8.166;2023-04-28T13:21:33;97931.31;;;16.84;100.00
54876;BME280;40764;48.472;8.166;2023-04-28T13:27:33;97928.13;;;16.61;100.00
54876;BME280;40764;48.472;8.166;2023-04-28T13:33:35;97910.00;;;16.72;100.00
54876;BME280;40764;48.472;8.166;2023-04-28T13:39:35;97905.34;;;16.52;100.00
54876;BME280;40764;48.472;8.166;2023-04-28T13:45:35;97894.84;;;16.45;100.00
54876;BME280;40764;48.472;8.166;2023-04-28T13:51:36;97886.72;;;16.61;100.00
54876;BME280;40764;48.472;8.166;2023-04-28T13:57:36;97868.81;;;16.67;100.00
54876;BME280;40764;48.472;8.166;2023-04-28T14:03:37;97883.94;;;16.49;100.00
54876;BME280;40764;48.472;8.166;2023-04-28T14:09:37;97889.41;;;16.69;100.00
54876;BME280;40764;48.472;8.166;2023-04-28T14:15:37;97882.94;;;16.53;100.00
54876;BME280;40764;48.472;8.166;2023-04-28T14:21:39;97877.25;;;17.07;100.00
54876;BME280;40764;48.472;8.166;2023-04-28T14:27:39;97872.19;;;16.97;100.00
54876;BME280;40764;48.472;8.166;2023-04-28T14:33:39;97866.63;;;16.72;100.00
54876;BME280;40764;48.472;8.166;2023-04-28T14:39:41;97856.38;;;16.61;100.00
54876;BME280;40764;48.472;8.166;2023-04-28T14:45:42;97853.28;;;16.17;100.00
54876;BME280;40764;48.472;8.166;2023-04-28T14:51:42;97852.34;;;16.13;100.00
54876;BME280;40764;48.472;8.166;2023-04-28T14:57:42;97860.56;;;16.34;100.00
54876;BME280;40764;48.472;8.166;2023-04-28T15:03:43;97846.88;;;16.25;100.00
54876;BME280;40764;48.472;8.166;2023-04-28T15:09:43;97838.63;;;16.25;100.00
54876;BME280;40764;48.472;8.166;2023-04-28T15:15:43;97838.72;;;16.29;100.00
54876;BME280;40764;48.472;8.166;2023-04-28T15:21:45;97835.28;;;16.32;100.00
54876;BME280;40764;48.472;8.166;2023-04-28T15:27:45;97832.47;;;16.53;100.00
54876;BME280;40764;48.472;8.166;2023-04-28T15:33:45;97823.47;;;16.43;100.00
54876;BME280;40764;48.472;8.166;2023-04-28T15:39:46;97819.09;;;16.30;100.00
54876;BME280;40764;48.472;8.166;2023-04-28T15:45:46;97810.47;;;16.32;100.00
54876;BME280;40764;48.472;8.166;2023-04-28T15:51:46;97820.69;;;16.31;100.00
54876;BME280;40764;48.472;8.166;2023-04-28T15:57:47;97790.81;;;16.21;100.00
54876;BME280;40764;48.472;8.166;2023-04-28T16:03:47;97796.94;;;15.94;100.00
54876;BME280;40764;48.472;8.166;2023-04-28T16:09:48;97806.19;;;15.89;100.00
54876;BME280;40764;48.472;8.166;2023-04-28T16:15:48;97821.47;;;15.87;100.00
54876;BME280;40764;48.472;8.166;2023-04-28T16:21:50;97816.16;;;15.82;100.00
54876;BME280;40764;48.472;8.166;2023-04-28T16:27:50;97822.25;;;15.75;100.00
54876;BME280;40764;48.472;8.166;2023-04-28T16:33:50;97823.41;;;15.86;100.00
54876;BME280;40764;48.472;8.166;2023-04-28T16:39:51;97821.91;;;16.09;100.00
54876;BME280;40764;48.472;8.166;2023-04-28T16:45:51;97827.50;;;16.01;100.00
54876;BME280;40764;48.472;8.166;2023-04-28T16:51:59;97827.84;;;15.99;100.00
54876;BME280;40764;48.472;8.166;2023-04-28T16:57:59;97838.75;;;15.96;100.00
54876;BME280;40764;48.472;8.166;2023-04-28T17:04:00;97826.09;;;16.40;100.00
54876;BME280;40764;48.472;8.166;2023-04-28T17:10:02;97823.03;;;16.54;100.00
54876;BME280;40764;48.472;8.166;2023-04-28T17:16:02;97833.44;;;16.24;100.00
54876;BME280;40764;48.472;8.166;2023-04-28T17:22:03;97822.75;;;16.22;100.00
54876;BME280;40764;48.472;8.166;2023-04-28T17:28:03;97826.09;;;16.28;100.00
54876;BME280;40764;48.472;8.166;2023-04-28T17:34:03;97824.56;;;16.18;100.00
54876;BME280;40764;48.472;8.166;2023-04-28T17:40:04;97821.09;;;16.09;100.00
54876;BME280;40764;48.472;8.166;2023-04-28T17:46:04;97828.66;;;16.00;100.00
54876;BME280;40764;48.472;8.166;2023-04-28T17:52:05;97836.00;;;15.96;100.00
54876;BME280;40764;48.472;8.166;2023-04-28T17:58:06;97835.41;;;15.90;100.00
54876;BME280;40764;48.472;8.166;2023-04-28T18:04:06;97844.97;;;15.72;100.00
54876;BME280;40764;48.472;8.166;2023-04-28T18:10:07;97848.44;;;15.60;100.00
54876;BME280;40764;48.472;8.166;2023-04-28T18:16:08;97850.91;;;15.53;100.00
54876;BME280;40764;48.472;8.166;2023-04-28T18:22:13;97856.50;;;15.44;100.00
54876;BME280;40764;48.472;8.166;2023-04-28T18:28:13;97869.78;;;15.42;100.00
54876;BME280;40764;48.472;8.166;2023-04-28T18:34:13;97872.75;;;15.37;100.00
54876;BME280;40764;48.472;8.166;2023-04-28T18:40:14;97881.03;;;15.29;100.00
54876;BME280;40764;48.472;8.166;2023-04-28T18:46:14;97876.75;;;15.19;100.00
54876;BME280;40764;48.472;8.166;2023-04-28T18:52:14;97885.59;;;15.04;100.00
54876;BME280;40764;48.472;8.166;2023-04-28T18:58:15;97893.06;;;14.95;100.00
54876;BME280;40764;48.472;8.166;2023-04-28T19:04:15;97889.88;;;14.84;100.00
54876;BME280;40764;48.472;8.166;2023-04-28T19:10:16;97906.69;;;14.91;100.00
54876;BME280;40764;48.472;8.166;2023-04-28T19:16:16;97898.81;;;14.72;100.00
54876;BME280;40764;48.472;8.166;2023-04-28T19:22:32;97902.91;;;14.57;100.00
54876;BME280;40764;48.472;8.166;2023-04-28T19:28:32;97906.50;;;14.49;100.00
54876;BME280;40764;48.472;8.166;2023-04-28T19:34:33;97905.97;;;14.65;100.00
54876;BME280;40764;48.472;8.166;2023-04-28T19:40:33;97915.69;;;14.62;100.00
54876;BME280;40764;48.472;8.166;2023-04-28T19:46:33;97922.66;;;14.60;100.00
54876;BME280;40764;48.472;8.166;2023-04-28T19:52:34;97927.34;;;14.59;100.00
54876;BME280;40764;48.472;8.166;2023-04-28T19:58:35;97939.47;;;14.41;100.00
54876;BME280;40764;48.472;8.166;2023-04-28T20:04:36;97930.28;;;14.28;100.00
54876;BME280;40764;48.472;8.166;2023-04-28T20:10:37;97930.59;;;14.35;100.00
54876;BME280;40764;48.472;8.166;2023-04-28T20:16:37;97941.25;;;14.37;100.00
54876;BME280;40764;48.472;8.166;2023-04-28T20:22:38;97937.41;;;14.12;100.00
54876;BME280;40764;48.472;8.166;2023-04-28T20:28:42;97939.38;;;14.03;100.00
54876;BME280;40764;48.472;8.166;2023-04-28T20:34:43;97943.91;;;13.99;100.00
54876;BME280;40764;48.472;8.166;2023-04-28T20:40:44;97951.81;;;13.83;100.00
54876;BME280;40764;48.472;8.166;2023-04-28T20:46:45;97945.00;;;13.63;100.00
54876;BME280;40764;48.472;8.166;2023-04-28T20:52:45;97951.81;;;13.66;100.00
54876;BME280;40764;48.472;8.166;2023-04-28T20:58:45;97950.16;;;13.56;100.00
54876;BME280;40764;48.472;8.166;2023-04-28T21:04:46;97952.91;;;13.56;100.00
54876;BME280;40764;48.472;8.166;2023-04-28T21:10:47;97955.31;;;13.57;100.00
54876;BME280;40764;48.472;8.166;2023-04-28T21:16:47;97958.91;;;13.67;100.00
54876;BME280;40764;48.472;8.166;2023-04-28T21:22:48;97967.00;;;13.72;100.00
54876;BME280;40764;48.472;8.166;2023-04-28T21:28:48;97963.59;;;13.66;100.00
54876;BME280;40764;48.472;8.166;2023-04-28T21:34:49;97965.03;;;13.63;100.00
54876;BME280;40764;48.472;8.166;2023-04-28T21:40:49;97970.19;;;13.56;100.00
54876;BME280;40764;48.472;8.166;2023-04-28T21:46:50;97968.44;;;13.60;100.00
54876;BME280;40764;48.472;8.166;2023-04-28T21:52:50;97963.28;;;13.68;100.00
54876;BME280;40764;48.472;8.166;2023-04-28T21:58:51;97963.28;;;13.68;100.00
54876;BME280;40764;48.472;8.166;2023-04-28T22:04:52;97964.06;;;13.59;100.00
54876;BME280;40764;48.472;8.166;2023-04-28T22:10:53;97956.00;;;13.63;100.00
54876;BME280;40764;48.472;8.166;2023-04-28T22:16:53;97956.44;;;13.56;100.00
54876;BME280;40764;48.472;8.166;2023-04-28T22:22:54;97956.78;;;13.55;100.00
54876;BME280;40764;48.472;8.166;2023-04-28T22:28:54;97952.72;;;13.52;100.00
54876;BME280;40764;48.472;8.166;2023-04-28T22:34:55;97954.19;;;13.58;100.00
54876;BME280;40764;48.472;8.166;2023-04-28T22:40:55;97955.03;;;13.59;100.00
54876;BME280;40764;48.472;8.166;2023-04-28T22:46:55;97957.75;;;13.50;100.00
54876;BME280;40764;48.472;8.166;2023-04-28T22:52:56;97964.19;;;13.46;100.00
54876;BME280;40764;48.472;8.166;2023-04-28T22:58:56;97960.63;;;13.45;100.00
54876;BME280;40764;48.472;8.166;2023-04-28T23:04:58;97951.25;;;13.38;100.00
54876;BME280;40764;48.472;8.166;2023-04-28T23:10:58;97960.31;;;13.38;100.00
54876;BME280;40764;48.472;8.166;2023-04-28T23:16:58;97966.59;;;13.30;100.00
54876;BME280;40764;48.472;8.166;2023-04-28T23:22:59;97966.38;;;13.26;100.00
54876;BME280;40764;48.472;8.166;2023-04-28T23:28:59;97967.53;;;13.25;100.00
54876;BME280;40764;48.472;8.166;2023-04-28T23:35:00;97963.31;;;13.19;100.00
54876;BME280;40764;48.472;8.166;2023-04-28T23:41:00;97969.47;;;13.25;100.00
54876;BME280;40764;48.472;8.166;2023-04-28T23:47:01;97968.78;;;13.19;100.00
54876;BME280;40764;48.472;8.166;2023-04-28T23:53:01;97962.66;;;13.22;100.00
54876;BME280;40764;48.472;8.166;2023-04-28T23:59:01;97960.41;;;13.24;100.00
